createdAt,value
2018-05-27T00:00:45.701Z,17.91
2018-05-27T00:01:45.670Z,15.69
2018-05-27T00:02:45.637Z,11.16
2018-05-27T00:03:45.604Z,9.91
2018-05-27T00:04:45.572Z,7.02
2018-05-27T00:05:45.547Z,4.61
2018-05-27T00:06:45.518Z,2.40
2018-05-27T00:07:45.489Z,1.92
2018-05-27T00:08:45.459Z,1.44
2018-05-27T00:09:45.425Z,2.02
2018-05-27T00:10:45.393Z,2.31
2018-05-27T00:11:45.363Z,2.40
2018-05-27T00:12:45.331Z,2.69
2018-05-27T00:13:45.300Z,4.43
2018-05-27T00:14:45.271Z,4.81
2018-05-27T00:15:45.243Z,5.00
2018-05-27T00:16:45.208Z,5.19
2018-05-27T00:17:45.181Z,5.87
2018-05-27T00:18:45.150Z,5.77
2018-05-27T00:19:45.121Z,6.83
2018-05-27T00:20:45.093Z,7.60
2018-05-27T00:21:45.059Z,6.93
2018-05-27T00:22:45.026Z,7.31
2018-05-27T00:23:44.994Z,7.89
2018-05-27T00:24:44.964Z,8.56
2018-05-27T00:25:44.932Z,8.76
2018-05-27T00:26:44.914Z,8.18
2018-05-27T00:27:44.882Z,8.08
2018-05-27T00:28:44.844Z,8.86
2018-05-27T00:29:44.816Z,8.56
2018-05-27T00:30:44.791Z,9.05
2018-05-27T00:31:44.749Z,8.66
2018-05-27T00:32:44.723Z,8.76
2018-05-27T00:33:44.690Z,8.95
2018-05-27T00:34:44.668Z,8.95
2018-05-27T00:35:44.624Z,9.05
2018-05-27T00:36:44.593Z,9.14
2018-05-27T00:37:44.575Z,8.66
2018-05-27T00:38:44.535Z,8.95
2018-05-27T00:39:44.514Z,8.66
2018-05-27T00:40:44.476Z,8.47
2018-05-27T00:41:44.448Z,8.56
2018-05-27T00:42:44.410Z,8.76
2018-05-27T00:43:44.382Z,8.28
2018-05-27T00:44:44.351Z,8.28
2018-05-27T00:45:44.319Z,7.41
2018-05-27T00:46:44.297Z,6.64
2018-05-27T00:47:44.260Z,6.93
2018-05-27T00:48:44.231Z,7.60
2018-05-27T00:49:44.196Z,8.18
2018-05-27T00:50:44.172Z,8.08
2018-05-27T00:51:44.140Z,7.51
2018-05-27T00:52:44.115Z,6.16
2018-05-27T00:53:44.079Z,7.70
2018-05-27T00:54:44.044Z,7.89
2018-05-27T00:55:44.016Z,5.96
2018-05-27T00:56:43.982Z,7.99
2018-05-27T00:57:43.948Z,5.68
2018-05-27T00:58:43.927Z,9.34
2018-05-27T00:59:43.892Z,8.28
2018-05-27T01:00:43.869Z,9.43
2018-05-27T01:01:43.834Z,5.19
2018-05-27T01:02:43.793Z,9.24
2018-05-27T01:03:43.769Z,10.49
2018-05-27T01:04:43.738Z,8.95
2018-05-27T01:05:43.709Z,9.91
2018-05-27T01:06:43.671Z,10.20
2018-05-27T01:07:43.640Z,10.78
2018-05-27T01:08:43.614Z,11.55
2018-05-27T01:09:43.577Z,12.23
2018-05-27T01:10:43.560Z,10.97
2018-05-27T01:11:43.523Z,11.65
2018-05-27T01:12:43.491Z,11.46
2018-05-27T01:13:43.464Z,10.30
2018-05-27T01:14:43.430Z,10.78
2018-05-27T01:15:43.396Z,12.13
2018-05-27T01:16:43.364Z,13.28
2018-05-27T01:17:43.334Z,13.76
2018-05-27T01:18:43.318Z,14.83
2018-05-27T01:19:43.277Z,13.96
2018-05-27T01:20:43.244Z,13.57
2018-05-27T01:21:43.209Z,13.67
2018-05-27T01:22:43.183Z,14.05
2018-05-27T01:23:43.155Z,14.05
2018-05-27T01:24:43.136Z,14.34
2018-05-27T01:25:43.091Z,14.34
2018-05-27T01:26:43.053Z,13.57
2018-05-27T01:27:43.029Z,13.18
2018-05-27T01:28:42.996Z,12.41
2018-05-27T01:29:42.959Z,12.23
2018-05-27T01:30:42.939Z,12.41
2018-05-27T01:31:42.905Z,12.80
2018-05-27T01:32:42.873Z,13.18
2018-05-27T01:33:42.845Z,13.09
2018-05-27T01:34:42.809Z,12.51
2018-05-27T01:35:42.782Z,12.71
2018-05-27T01:36:42.757Z,13.18
2018-05-27T01:37:42.721Z,13.28
2018-05-27T01:38:42.684Z,11.84
2018-05-27T01:39:42.656Z,11.65
2018-05-27T01:40:42.625Z,10.88
2018-05-27T01:41:42.590Z,10.20
2018-05-27T01:42:42.567Z,8.75
2018-05-27T01:43:42.534Z,6.93
2018-05-27T01:44:42.506Z,6.35
2018-05-27T01:45:42.478Z,4.52
2018-05-27T01:46:42.441Z,2.59
2018-05-27T01:47:42.409Z,1.06
2018-05-27T01:48:42.379Z,0.09
2018-05-27T01:49:42.348Z,0.00
2018-05-27T01:50:42.320Z,0.00
2018-05-27T01:51:42.292Z,0.00
2018-05-27T01:52:42.254Z,0.00
2018-05-27T01:53:42.222Z,0.00
2018-05-27T01:54:42.197Z,0.00
2018-05-27T01:55:42.164Z,0.00
2018-05-27T01:56:42.134Z,0.00
2018-05-27T01:57:42.106Z,0.00
2018-05-27T01:58:42.069Z,0.00
2018-05-27T01:59:42.039Z,0.00
2018-05-27T02:00:42.009Z,0.00
2018-05-27T02:01:41.975Z,0.00
2018-05-27T02:02:41.950Z,0.00
2018-05-27T02:03:41.919Z,1.44
2018-05-27T02:04:41.887Z,2.31
2018-05-27T02:05:41.855Z,2.31
2018-05-27T02:06:41.823Z,2.21
2018-05-27T02:07:41.792Z,2.69
2018-05-27T02:08:41.764Z,2.69
2018-05-27T02:09:41.733Z,3.17
2018-05-27T02:10:41.696Z,3.27
2018-05-27T02:11:41.672Z,3.36
2018-05-27T02:12:41.638Z,3.46
2018-05-27T02:13:41.600Z,3.17
2018-05-27T02:14:41.578Z,3.36
2018-05-27T02:15:41.547Z,2.69
2018-05-27T02:16:41.515Z,3.75
2018-05-27T02:17:41.494Z,1.92
2018-05-27T02:18:41.449Z,0.00
2018-05-27T02:19:41.420Z,0.00
2018-05-27T02:20:41.404Z,0.00
2018-05-27T02:21:41.359Z,0.00
2018-05-27T02:22:41.330Z,0.00
2018-05-27T02:23:41.297Z,0.00
2018-05-27T02:24:41.265Z,0.00
2018-05-27T02:25:41.233Z,0.00
2018-05-27T02:26:41.212Z,0.00
2018-05-27T02:27:41.178Z,0.00
2018-05-27T02:28:41.144Z,0.00
2018-05-27T02:29:41.113Z,0.00
2018-05-27T02:30:41.077Z,0.00
2018-05-27T02:31:41.046Z,0.00
2018-05-27T02:32:41.018Z,0.00
2018-05-27T02:33:40.984Z,0.00
2018-05-27T02:34:40.957Z,0.00
2018-05-27T02:35:40.925Z,0.00
2018-05-27T02:36:40.892Z,0.00
2018-05-27T02:37:40.864Z,0.00
2018-05-27T02:38:40.831Z,0.00
2018-05-27T02:39:40.799Z,0.00
2018-05-27T02:40:40.771Z,0.00
2018-05-27T02:41:40.740Z,0.00
2018-05-27T02:42:40.705Z,0.00
2018-05-27T02:43:40.675Z,0.00
2018-05-27T02:44:40.643Z,0.00
2018-05-27T02:45:40.612Z,0.00
2018-05-27T02:46:40.585Z,0.00
2018-05-27T02:47:40.558Z,0.29
2018-05-27T02:48:40.522Z,0.29
2018-05-27T02:49:40.491Z,1.34
2018-05-27T02:50:40.460Z,0.86
2018-05-27T02:51:40.428Z,0.38
2018-05-27T02:52:40.396Z,0.00
2018-05-27T02:53:40.363Z,0.09
2018-05-27T02:54:40.335Z,0.96
2018-05-27T02:55:40.303Z,0.38
2018-05-27T02:56:40.274Z,0.38
2018-05-27T02:57:40.238Z,0.19
2018-05-27T02:58:40.211Z,0.00
2018-05-27T02:59:40.181Z,0.00
2018-05-27T03:00:40.150Z,0.00
2018-05-27T03:01:40.118Z,0.00
2018-05-27T03:02:40.081Z,0.00
2018-05-27T03:03:40.049Z,0.00
2018-05-27T03:04:40.025Z,0.00
2018-05-27T03:05:39.989Z,0.00
2018-05-27T03:06:39.965Z,0.77
2018-05-27T03:07:39.932Z,0.77
2018-05-27T03:08:39.907Z,0.77
2018-05-27T03:09:39.868Z,0.48
2018-05-27T03:10:39.840Z,0.86
2018-05-27T03:11:39.803Z,0.86
2018-05-27T03:12:39.774Z,1.15
2018-05-27T03:13:39.744Z,2.11
2018-05-27T03:14:39.705Z,2.31
2018-05-27T03:15:39.678Z,2.40
2018-05-27T03:16:39.647Z,1.63
2018-05-27T03:17:39.616Z,2.21
2018-05-27T03:18:39.587Z,2.01
2018-05-27T03:19:39.555Z,2.31
2018-05-27T03:20:39.524Z,2.31
2018-05-27T03:21:39.497Z,1.54
2018-05-27T03:22:39.458Z,1.25
2018-05-27T03:23:39.440Z,1.63
2018-05-27T03:24:39.403Z,0.00
2018-05-27T03:25:39.369Z,0.38
2018-05-27T03:26:39.337Z,0.86
2018-05-27T03:27:39.305Z,0.86
2018-05-27T03:28:39.276Z,0.48
2018-05-27T03:29:39.238Z,0.00
2018-05-27T03:30:39.213Z,0.38
2018-05-27T03:31:39.179Z,0.00
2018-05-27T03:32:39.151Z,0.29
2018-05-27T03:33:39.120Z,1.34
2018-05-27T03:34:39.084Z,0.00
2018-05-27T03:35:39.051Z,0.57
2018-05-27T03:36:39.023Z,0.38
2018-05-27T03:37:38.985Z,0.48
2018-05-27T03:38:38.967Z,0.00
2018-05-27T03:39:38.931Z,2.40
2018-05-27T03:40:38.904Z,0.00
2018-05-27T03:41:38.874Z,0.67
2018-05-27T03:42:38.835Z,0.67
2018-05-27T03:43:38.801Z,1.15
2018-05-27T03:44:38.780Z,1.44
2018-05-27T03:45:38.748Z,2.01
2018-05-27T03:46:38.707Z,1.73
2018-05-27T03:47:38.677Z,2.59
2018-05-27T03:48:38.647Z,3.17
2018-05-27T03:49:38.614Z,3.17
2018-05-27T03:50:38.586Z,3.85
2018-05-27T03:51:38.554Z,3.94
2018-05-27T03:52:38.524Z,3.56
2018-05-27T03:53:38.491Z,0.00
2018-05-27T03:54:38.456Z,0.00
2018-05-27T03:55:38.425Z,0.00
2018-05-27T03:56:38.405Z,0.00
2018-05-27T03:57:38.363Z,0.00
2018-05-27T03:58:38.342Z,0.00
2018-05-27T03:59:38.306Z,0.00
2018-05-27T04:00:38.270Z,0.00
2018-05-27T04:01:38.238Z,0.00
2018-05-27T04:02:38.210Z,0.00
2018-05-27T04:03:38.179Z,0.00
2018-05-27T04:04:38.146Z,0.00
2018-05-27T04:05:38.118Z,0.00
2018-05-27T04:06:38.080Z,0.00
2018-05-27T04:07:38.051Z,0.00
2018-05-27T04:08:38.030Z,0.00
2018-05-27T04:09:37.985Z,0.00
2018-05-27T04:10:37.961Z,0.00
2018-05-27T04:11:37.929Z,0.00
2018-05-27T04:12:37.895Z,0.00
2018-05-27T04:13:37.873Z,0.00
2018-05-27T04:14:37.827Z,0.00
2018-05-27T04:15:37.796Z,0.00
2018-05-27T04:16:37.771Z,0.00
2018-05-27T04:17:37.741Z,0.00
2018-05-27T04:18:37.705Z,0.00
2018-05-27T04:19:37.676Z,0.00
2018-05-27T04:20:37.641Z,0.00
2018-05-27T04:21:37.607Z,0.00
2018-05-27T04:22:37.586Z,0.00
2018-05-27T04:23:37.548Z,0.00
2018-05-27T04:24:37.520Z,0.00
2018-05-27T04:25:37.486Z,0.00
2018-05-27T04:26:37.454Z,0.00
2018-05-27T04:27:37.426Z,0.00
2018-05-27T04:28:37.421Z,0.00
2018-05-27T04:29:37.353Z,0.00
2018-05-27T04:30:37.328Z,0.00
2018-05-27T04:31:37.294Z,0.00
2018-05-27T04:32:37.266Z,0.00
2018-05-27T04:33:37.228Z,0.00
2018-05-27T04:34:37.200Z,0.00
2018-05-27T04:35:37.168Z,0.00
2018-05-27T04:36:37.185Z,0.00
2018-05-27T04:37:37.109Z,0.00
2018-05-27T04:38:37.073Z,0.00
2018-05-27T04:39:37.039Z,0.00
2018-05-27T04:40:37.023Z,0.00
2018-05-27T04:41:36.976Z,0.00
2018-05-27T04:42:36.957Z,0.00
2018-05-27T04:43:36.917Z,0.00
2018-05-27T04:44:36.897Z,0.00
2018-05-27T04:45:36.853Z,0.00
2018-05-27T04:46:36.818Z,0.00
2018-05-27T04:47:36.790Z,0.00
2018-05-27T04:48:36.758Z,0.00
2018-05-27T04:49:36.730Z,0.00
2018-05-27T04:50:36.691Z,0.00
2018-05-27T04:51:36.664Z,0.00
2018-05-27T04:52:36.629Z,0.00
2018-05-27T04:53:36.599Z,0.00
2018-05-27T04:54:36.570Z,0.00
2018-05-27T04:55:36.541Z,0.00
2018-05-27T04:56:36.505Z,0.00
2018-05-27T04:57:36.470Z,0.00
2018-05-27T04:58:36.445Z,0.00
2018-05-27T04:59:36.417Z,0.00
2018-05-27T05:00:36.379Z,0.00
2018-05-27T05:01:36.363Z,0.00
2018-05-27T05:02:36.316Z,0.00
2018-05-27T05:03:36.284Z,0.00
2018-05-27T05:04:36.253Z,0.00
2018-05-27T05:05:36.227Z,0.00
2018-05-27T05:06:36.187Z,0.00
2018-05-27T05:07:36.162Z,0.00
2018-05-27T05:08:36.128Z,0.00
2018-05-27T05:09:44.732Z,0.00
2018-05-27T05:11:29.449Z,0.29
2018-05-27T05:12:29.386Z,0.67
2018-05-27T05:13:29.367Z,2.12
2018-05-27T05:14:29.327Z,2.40
2018-05-27T05:15:29.294Z,3.17
2018-05-27T05:16:29.262Z,4.04
2018-05-27T05:17:29.226Z,4.43
2018-05-27T05:18:29.195Z,5.20
2018-05-27T05:19:29.170Z,2.89
2018-05-27T05:20:29.138Z,3.95
2018-05-27T05:21:29.107Z,2.21
2018-05-27T05:22:29.069Z,1.15
2018-05-27T05:23:29.042Z,0.00
2018-05-27T05:24:29.014Z,0.00
2018-05-27T05:25:28.984Z,0.00
2018-05-27T05:26:28.952Z,0.00
2018-05-27T05:27:28.923Z,0.00
2018-05-27T05:28:28.888Z,0.00
2018-05-27T05:29:28.865Z,0.00
2018-05-27T05:30:28.827Z,0.00
2018-05-27T05:31:28.795Z,0.00
2018-05-27T05:32:28.772Z,0.00
2018-05-27T05:33:28.738Z,0.00
2018-05-27T05:34:28.711Z,0.00
2018-05-27T05:35:28.682Z,0.00
2018-05-27T05:36:28.643Z,0.00
2018-05-27T05:37:28.616Z,0.00
2018-05-27T05:38:28.583Z,0.00
2018-05-27T05:39:28.554Z,0.00
2018-05-27T05:40:28.520Z,0.00
2018-05-27T05:41:28.497Z,0.00
2018-05-27T05:42:28.457Z,0.00
2018-05-27T05:43:28.427Z,0.00
2018-05-27T05:44:28.404Z,0.00
2018-05-27T05:45:28.368Z,0.00
2018-05-27T05:46:28.337Z,0.00
2018-05-27T05:47:28.310Z,0.00
2018-05-27T05:48:28.268Z,0.00
2018-05-27T05:49:28.243Z,0.00
2018-05-27T05:50:28.215Z,0.00
2018-05-27T05:51:28.183Z,0.00
2018-05-27T05:52:28.152Z,0.00
2018-05-27T05:53:28.118Z,0.00
2018-05-27T05:54:28.090Z,0.00
2018-05-27T05:55:28.057Z,0.00
2018-05-27T05:56:28.031Z,0.00
2018-05-27T05:57:27.998Z,0.00
2018-05-27T05:58:27.968Z,0.00
2018-05-27T05:59:27.937Z,0.00
2018-05-27T06:00:27.903Z,0.00
2018-05-27T06:01:27.872Z,0.00
2018-05-27T06:02:27.842Z,0.00
2018-05-27T06:03:27.813Z,0.00
2018-05-27T06:04:27.785Z,0.00
2018-05-27T06:05:27.755Z,0.00
2018-05-27T06:06:27.723Z,0.00
2018-05-27T06:07:27.697Z,0.48
2018-05-27T06:08:27.664Z,0.00
2018-05-27T06:09:27.634Z,0.00
2018-05-27T06:10:27.603Z,0.00
2018-05-27T06:11:27.574Z,0.00
2018-05-27T06:12:27.544Z,0.00
2018-05-27T06:13:27.527Z,0.00
2018-05-27T06:14:27.481Z,0.00
2018-05-27T06:15:27.448Z,0.00
2018-05-27T06:16:27.423Z,0.00
2018-05-27T06:17:27.394Z,0.00
2018-05-27T06:18:27.361Z,0.00
2018-05-27T06:19:27.336Z,0.00
2018-05-27T06:20:27.303Z,0.00
2018-05-27T06:21:27.271Z,0.00
2018-05-27T06:22:27.244Z,0.38
2018-05-27T06:23:27.211Z,2.22
2018-05-27T06:24:27.189Z,0.38
2018-05-27T06:25:27.148Z,0.00
2018-05-27T06:26:27.121Z,2.02
2018-05-27T06:27:27.087Z,0.00
2018-05-27T06:28:27.064Z,0.00
2018-05-27T06:29:27.077Z,0.00
2018-05-27T06:30:27.002Z,0.00
2018-05-27T06:31:26.973Z,0.00
2018-05-27T06:32:26.936Z,0.00
2018-05-27T06:33:26.910Z,0.00
2018-05-27T06:34:26.883Z,2.22
2018-05-27T06:35:26.848Z,0.29
2018-05-27T06:36:26.830Z,0.57
2018-05-27T06:37:26.796Z,1.35
2018-05-27T06:38:26.768Z,4.63
2018-05-27T06:39:26.737Z,3.96
2018-05-27T06:40:26.702Z,3.18
2018-05-27T06:41:26.686Z,1.54
2018-05-27T06:42:26.651Z,1.25
2018-05-27T06:43:26.619Z,2.22
2018-05-27T06:44:26.579Z,8.49
2018-05-27T06:45:26.553Z,11.38
2018-05-27T06:46:26.528Z,16.89
2018-05-27T06:47:26.495Z,17.76
2018-05-27T06:48:26.472Z,20.76
2018-05-27T06:49:26.441Z,18.63
2018-05-27T06:50:26.410Z,20.28
2018-05-27T06:51:26.382Z,19.21
2018-05-27T06:52:26.348Z,20.57
2018-05-27T06:53:26.321Z,20.48
2018-05-27T06:54:26.293Z,20.48
2018-05-27T06:55:26.262Z,26.46
2018-05-27T06:56:26.239Z,23.38
2018-05-27T06:57:26.205Z,15.45
2018-05-27T06:58:26.175Z,22.12
2018-05-27T06:59:26.144Z,23.08
2018-05-27T07:00:26.121Z,22.89
2018-05-27T07:01:26.091Z,26.95
2018-05-27T07:02:26.070Z,26.66
2018-05-27T07:03:26.034Z,22.31
2018-05-27T07:04:26.041Z,25.02
2018-05-27T07:05:25.974Z,25.40
2018-05-27T07:06:25.943Z,26.18
2018-05-27T07:07:25.915Z,26.57
2018-05-27T07:08:25.888Z,25.23
2018-05-27T07:09:25.857Z,29.77
2018-05-27T07:10:25.830Z,29.09
2018-05-27T07:11:25.806Z,28.80
2018-05-27T07:12:25.769Z,25.72
2018-05-27T07:13:25.740Z,26.68
2018-05-27T07:14:25.750Z,24.08
2018-05-27T07:15:25.686Z,24.17
2018-05-27T07:16:25.648Z,22.74
2018-05-27T07:17:25.622Z,25.72
2018-05-27T07:18:25.599Z,26.40
2018-05-27T07:19:25.566Z,23.88
2018-05-27T07:20:25.547Z,23.98
2018-05-27T07:21:25.513Z,25.34
2018-05-27T07:22:25.488Z,19.53
2018-05-27T07:23:25.460Z,21.75
2018-05-27T07:24:25.433Z,26.50
2018-05-27T07:25:25.395Z,25.04
2018-05-27T07:26:25.368Z,25.52
2018-05-27T07:27:25.338Z,24.17
2018-05-27T07:28:25.321Z,21.85
2018-05-27T07:29:25.285Z,19.53
2018-05-27T07:30:25.259Z,16.72
2018-05-27T07:31:25.228Z,14.89
2018-05-27T07:32:25.216Z,15.28
2018-05-27T07:33:25.173Z,18.66
2018-05-27T07:34:25.153Z,17.60
2018-05-27T07:35:25.122Z,22.24
2018-05-27T07:36:25.085Z,25.92
2018-05-27T07:37:25.060Z,19.43
2018-05-27T07:38:25.040Z,19.15
2018-05-27T07:39:25.001Z,21.67
2018-05-27T07:40:24.986Z,21.77
2018-05-27T07:41:24.956Z,25.73
2018-05-27T07:42:24.921Z,24.57
2018-05-27T07:43:24.892Z,31.25
2018-05-27T07:44:24.861Z,31.25
2018-05-27T07:45:24.833Z,28.26
2018-05-27T07:46:24.808Z,25.46
2018-05-27T07:47:24.780Z,32.52
2018-05-27T07:48:24.746Z,34.15
2018-05-27T07:49:24.722Z,32.79
2018-05-27T07:50:24.696Z,29.22
2018-05-27T07:51:24.664Z,31.44
2018-05-27T07:52:24.652Z,26.12
2018-05-27T07:53:24.613Z,29.60
2018-05-27T07:54:24.585Z,27.58
2018-05-27T07:55:24.563Z,27.00
2018-05-27T07:56:24.524Z,32.23
2018-05-27T07:57:24.507Z,39.97
2018-05-27T07:58:24.544Z,37.26
2018-05-27T07:59:24.442Z,42.41
2018-05-27T08:00:24.424Z,43.68
2018-05-27T08:01:24.388Z,41.25
2018-05-27T08:02:24.362Z,42.03
2018-05-27T08:03:24.339Z,38.35
2018-05-27T08:04:24.307Z,41.64
2018-05-27T08:05:24.281Z,46.87
2018-05-27T08:06:24.269Z,43.87
2018-05-27T08:07:24.235Z,35.44
2018-05-27T08:08:24.192Z,32.44
2018-05-27T08:09:24.171Z,35.44
2018-05-27T08:10:24.138Z,35.15
2018-05-27T08:11:24.110Z,34.67
2018-05-27T08:12:24.092Z,41.56
2018-05-27T08:13:24.059Z,35.27
2018-05-27T08:14:24.029Z,40.11
2018-05-27T08:15:24.005Z,39.92
2018-05-27T08:16:23.974Z,40.99
2018-05-27T08:17:23.946Z,45.25
2018-05-27T08:18:23.923Z,41.08
2018-05-27T08:19:23.895Z,44.57
2018-05-27T08:20:23.861Z,41.86
2018-05-27T08:21:23.839Z,43.79
2018-05-27T08:22:23.809Z,41.76
2018-05-27T08:23:23.780Z,43.31
2018-05-27T08:24:23.768Z,42.54
2018-05-27T08:25:23.728Z,43.31
2018-05-27T08:26:23.701Z,44.67
2018-05-27T08:27:23.676Z,40.69
2018-05-27T08:28:23.641Z,39.72
2018-05-27T08:29:23.624Z,42.63
2018-05-27T08:30:23.590Z,43.79
2018-05-27T08:31:23.569Z,42.63
2018-05-27T08:32:23.543Z,39.04
2018-05-27T08:33:23.510Z,40.89
2018-05-27T08:34:23.485Z,38.46
2018-05-27T08:35:23.462Z,42.72
2018-05-27T08:36:23.432Z,44.59
2018-05-27T08:37:23.411Z,42.72
2018-05-27T08:38:23.377Z,36.93
2018-05-27T08:39:23.348Z,39.45
2018-05-27T08:40:23.312Z,38.29
2018-05-27T08:41:23.290Z,38.00
2018-05-27T08:42:23.262Z,40.91
2018-05-27T08:43:23.248Z,41.39
2018-05-27T08:44:23.213Z,42.75
2018-05-27T08:45:23.182Z,44.98
2018-05-27T08:46:23.158Z,42.75
2018-05-27T08:47:23.128Z,40.13
2018-05-27T08:48:23.093Z,40.91
2018-05-27T08:49:23.078Z,40.61
2018-05-27T08:50:23.044Z,40.42
2018-05-27T08:51:23.029Z,34.22
2018-05-27T08:52:22.994Z,39.45
2018-05-27T08:53:23.016Z,34.22
2018-05-27T08:54:22.933Z,40.71
2018-05-27T08:55:22.910Z,36.93
2018-05-27T08:56:22.883Z,41.10
2018-05-27T08:57:22.861Z,45.75
2018-05-27T08:58:22.830Z,44.40
2018-05-27T08:59:22.800Z,46.04
2018-05-27T09:00:22.769Z,43.52
2018-05-27T09:01:22.755Z,37.90
2018-05-27T09:02:22.719Z,41.68
2018-05-27T09:03:22.684Z,40.61
2018-05-27T09:04:22.663Z,42.75
2018-05-27T09:05:22.635Z,41.00
2018-05-27T09:06:22.613Z,42.55
2018-05-27T09:07:22.577Z,47.20
2018-05-27T09:08:22.559Z,42.65
2018-05-27T09:09:22.527Z,48.08
2018-05-27T09:10:22.504Z,46.92
2018-05-27T09:11:22.485Z,43.04
2018-05-27T09:12:22.443Z,43.82
2018-05-27T09:13:22.417Z,45.27
2018-05-27T09:14:22.398Z,43.04
2018-05-27T09:15:22.391Z,45.85
2018-05-27T09:16:22.343Z,42.17
2018-05-27T09:17:22.309Z,46.14
2018-05-27T09:18:22.289Z,40.25
2018-05-27T09:19:22.260Z,43.64
2018-05-27T09:20:22.227Z,40.83
2018-05-27T09:21:22.200Z,43.93
2018-05-27T09:22:22.185Z,46.26
2018-05-27T09:23:22.161Z,50.53
2018-05-27T09:24:22.124Z,58.77
2018-05-27T09:25:22.094Z,57.61
2018-05-27T09:26:22.065Z,51.40
2018-05-27T09:27:22.036Z,60.55
2018-05-27T09:28:22.022Z,58.70
2018-05-27T09:29:21.987Z,59.87
2018-05-27T09:30:21.975Z,64.72
2018-05-27T09:31:21.929Z,62.85
2018-05-27T09:32:21.912Z,57.54
2018-05-27T09:33:21.880Z,56.74
2018-05-27T09:34:21.860Z,52.76
2018-05-27T09:35:21.829Z,55.31
2018-05-27T09:36:21.798Z,55.41
2018-05-27T09:37:21.768Z,56.28
2018-05-27T09:38:21.740Z,55.24
2018-05-27T09:39:21.712Z,55.24
2018-05-27T09:40:21.690Z,53.69
2018-05-27T09:41:21.665Z,64.17
2018-05-27T09:42:21.651Z,58.64
2018-05-27T09:43:21.614Z,68.15
2018-05-27T09:44:21.583Z,57.98
2018-05-27T09:45:21.593Z,63.71
2018-05-27T09:46:21.525Z,64.59
2018-05-27T09:47:21.505Z,65.20
2018-05-27T09:48:21.480Z,65.50
2018-05-27T09:49:21.449Z,64.62
2018-05-27T09:50:21.421Z,67.05
2018-05-27T09:51:21.447Z,68.41
2018-05-27T09:52:21.368Z,66.82
2018-05-27T09:53:21.346Z,68.38
2018-05-27T09:54:21.323Z,63.55
2018-05-27T09:55:21.293Z,70.36
2018-05-27T09:56:21.264Z,66.76
2018-05-27T09:57:21.237Z,66.86
2018-05-27T09:58:21.206Z,63.52
2018-05-27T09:59:21.182Z,65.08
2018-05-27T10:00:21.163Z,66.63
2018-05-27T10:01:21.132Z,69.74
2018-05-27T10:02:21.117Z,70.61
2018-05-27T10:03:21.074Z,69.35
2018-05-27T10:04:21.054Z,70.61
2018-05-27T10:05:21.027Z,67.50
2018-05-27T10:06:21.002Z,60.87
2018-05-27T10:07:20.981Z,68.15
2018-05-27T10:08:20.947Z,70.48
2018-05-27T10:09:20.976Z,71.84
2018-05-27T10:10:20.891Z,69.80
2018-05-27T10:11:20.871Z,71.55
2018-05-27T10:12:20.840Z,68.02
2018-05-27T10:13:20.831Z,64.82
2018-05-27T10:14:20.796Z,67.83
2018-05-27T10:15:20.764Z,66.76
2018-05-27T10:16:20.736Z,66.34
2018-05-27T10:17:20.708Z,65.47
2018-05-27T10:18:20.681Z,61.10
2018-05-27T10:19:20.660Z,60.13
2018-05-27T10:20:20.629Z,59.64
2018-05-27T10:21:20.601Z,60.13
2018-05-27T10:22:20.574Z,59.71
2018-05-27T10:23:20.544Z,63.49
2018-05-27T10:24:20.523Z,62.43
2018-05-27T10:25:20.500Z,58.55
2018-05-27T10:26:20.475Z,55.22
2018-05-27T10:27:20.447Z,57.26
2018-05-27T10:28:20.417Z,60.65
2018-05-27T10:29:20.390Z,60.62
2018-05-27T10:30:20.371Z,56.36
2018-05-27T10:31:20.332Z,56.00
2018-05-27T10:32:20.307Z,58.49
2018-05-27T10:33:20.280Z,60.52
2018-05-27T10:34:20.270Z,57.33
2018-05-27T10:35:20.223Z,55.10
2018-05-27T10:36:20.197Z,56.85
2018-05-27T10:37:20.175Z,56.34
2018-05-27T10:38:20.163Z,55.94
2018-05-27T10:39:20.121Z,55.76
2018-05-27T10:40:20.090Z,56.52
2018-05-27T10:41:20.063Z,51.18
2018-05-27T10:42:20.038Z,44.60
2018-05-27T10:43:20.008Z,47.21
2018-05-27T10:44:19.980Z,41.60
2018-05-27T10:45:19.956Z,39.18
2018-05-27T10:46:19.927Z,37.63
2018-05-27T10:47:19.900Z,41.02
2018-05-27T10:48:19.892Z,36.55
2018-05-27T10:49:19.841Z,23.79
2018-05-27T10:50:19.810Z,24.08
2018-05-27T10:51:19.792Z,30.93
2018-05-27T10:52:19.760Z,28.03
2018-05-27T10:53:19.747Z,31.89
2018-05-27T10:54:19.701Z,29.66
2018-05-27T10:55:19.672Z,35.44
2018-05-27T10:56:19.646Z,26.06
2018-05-27T10:57:19.624Z,17.76
2018-05-27T10:58:19.602Z,12.35
2018-05-27T10:59:19.566Z,13.21
2018-05-27T11:00:19.551Z,10.03
2018-05-27T11:01:19.507Z,7.61
2018-05-27T11:02:19.483Z,0.00
2018-05-27T11:03:19.450Z,0.00
2018-05-27T11:04:19.424Z,0.00
2018-05-27T11:05:19.396Z,0.00
2018-05-27T11:06:19.374Z,0.00
2018-05-27T11:07:19.352Z,0.00
2018-05-27T11:08:19.305Z,0.00
2018-05-27T11:09:19.279Z,0.00
2018-05-27T11:10:19.252Z,0.00
2018-05-27T11:11:19.225Z,0.00
2018-05-27T11:12:19.191Z,0.00
2018-05-27T11:13:19.160Z,0.00
2018-05-27T11:14:19.130Z,0.00
2018-05-27T11:15:19.105Z,0.00
2018-05-27T11:16:19.073Z,0.00
2018-05-27T11:17:19.046Z,0.00
2018-05-27T11:18:19.017Z,0.00
2018-05-27T11:19:19.003Z,0.00
2018-05-27T11:20:18.983Z,0.00
2018-05-27T11:21:18.924Z,0.00
2018-05-27T11:22:18.897Z,0.00
2018-05-27T11:23:18.872Z,0.00
2018-05-27T11:24:18.842Z,0.00
2018-05-27T11:25:18.807Z,0.00
2018-05-27T11:26:18.776Z,0.00
2018-05-27T11:27:18.749Z,0.00
2018-05-27T11:28:18.748Z,0.00
2018-05-27T11:29:18.690Z,0.00
2018-05-27T11:30:18.680Z,0.00
2018-05-27T11:31:18.660Z,0.00
2018-05-27T11:32:18.600Z,0.00
2018-05-27T11:33:18.578Z,0.00
2018-05-27T11:34:18.539Z,0.00
2018-05-27T11:35:18.512Z,0.00
2018-05-27T11:36:18.479Z,0.00
2018-05-27T11:37:18.450Z,0.00
2018-05-27T11:38:18.430Z,0.00
2018-05-27T11:39:18.388Z,0.00
2018-05-27T11:40:18.360Z,0.00
2018-05-27T11:41:18.341Z,0.00
2018-05-27T11:42:18.310Z,0.00
2018-05-27T11:43:18.274Z,0.00
2018-05-27T11:44:18.262Z,0.00
2018-05-27T11:45:18.214Z,0.00
2018-05-27T11:46:18.176Z,0.00
2018-05-27T11:47:18.144Z,0.00
2018-05-27T11:48:18.128Z,0.00
2018-05-27T11:49:18.091Z,0.00
2018-05-27T11:50:18.083Z,0.00
2018-05-27T11:51:18.043Z,0.00
2018-05-27T11:52:18.004Z,0.00
2018-05-27T11:53:17.968Z,0.00
2018-05-27T11:54:17.987Z,0.00
2018-05-27T11:55:17.915Z,0.00
2018-05-27T11:56:17.881Z,0.00
2018-05-27T11:57:17.848Z,0.00
2018-05-27T11:58:17.839Z,0.00
2018-05-27T11:59:17.853Z,0.00
2018-05-27T12:00:17.764Z,0.00
2018-05-27T12:01:17.731Z,0.00
2018-05-27T12:02:17.708Z,0.00
2018-05-27T12:03:17.686Z,0.00
2018-05-27T12:04:17.668Z,0.00
2018-05-27T12:05:17.713Z,0.00
2018-05-27T12:07:17.602Z,0.00
2018-05-27T12:08:17.535Z,0.00
2018-05-27T12:09:17.730Z,0.00
2018-05-27T12:10:17.472Z,0.00
2018-05-27T12:11:17.436Z,0.00
2018-05-27T12:12:17.401Z,0.00
2018-05-27T12:13:17.390Z,0.00
2018-05-27T12:14:17.369Z,0.00
2018-05-27T12:15:17.319Z,0.00
2018-05-27T12:16:17.285Z,0.00
2018-05-27T12:17:17.254Z,0.00
2018-05-27T12:18:17.228Z,0.00
2018-05-27T12:19:17.194Z,0.00
2018-05-27T12:20:17.163Z,0.00
2018-05-27T12:21:17.145Z,0.00
2018-05-27T12:22:17.110Z,0.00
2018-05-27T12:23:17.080Z,0.00
2018-05-27T12:24:17.050Z,0.00
2018-05-27T12:25:17.022Z,0.00
2018-05-27T12:26:16.989Z,0.00
2018-05-27T12:27:16.961Z,0.00
2018-05-27T12:28:16.933Z,0.00
2018-05-27T12:29:16.898Z,0.00
2018-05-27T12:30:16.872Z,0.00
2018-05-27T12:31:16.845Z,0.00
2018-05-27T12:32:16.807Z,0.00
2018-05-27T12:33:16.787Z,0.19
2018-05-27T12:34:17.072Z,4.44
2018-05-27T12:35:17.033Z,6.48
2018-05-27T12:36:16.840Z,7.93
2018-05-27T12:37:16.668Z,20.69
2018-05-27T12:38:16.643Z,12.57
2018-05-27T12:39:16.614Z,9.09
2018-05-27T12:40:16.580Z,2.80
2018-05-27T12:41:16.560Z,0.00
2018-05-27T12:42:16.531Z,0.00
2018-05-27T12:43:16.499Z,0.00
2018-05-27T12:44:16.466Z,2.22
2018-05-27T12:45:16.444Z,2.12
2018-05-27T12:46:16.414Z,0.77
2018-05-27T12:47:16.385Z,0.00
2018-05-27T12:48:16.364Z,3.96
2018-05-27T12:49:16.323Z,0.00
2018-05-27T12:50:16.298Z,5.22
2018-05-27T12:51:16.270Z,5.12
2018-05-27T12:52:16.240Z,4.54
2018-05-27T12:53:16.215Z,0.00
2018-05-27T12:54:16.187Z,0.00
2018-05-27T12:55:16.160Z,0.00
2018-05-27T12:56:16.132Z,0.00
2018-05-27T12:57:16.114Z,0.00
2018-05-27T12:58:16.071Z,0.00
2018-05-27T12:59:16.045Z,0.00
2018-05-27T13:00:16.020Z,0.00
2018-05-27T13:01:15.983Z,2.70
2018-05-27T13:02:15.955Z,2.03
2018-05-27T13:03:15.927Z,1.35
2018-05-27T13:04:15.896Z,0.00
2018-05-27T13:05:15.874Z,0.77
2018-05-27T13:06:15.847Z,0.00
2018-05-27T13:07:15.820Z,4.55
2018-05-27T13:08:15.789Z,7.83
2018-05-27T13:09:15.757Z,2.80
2018-05-27T13:10:15.741Z,6.96